Time;durP1;ratioP1;P1;durP2;ratioP2;P2;SDS_P1;SDS_P2;PMS_P1;PMS_P2;Temp;Humidity;BMP_temperature;BMP_pressure;BME280_temperature;BME280_humidity;BME280_pressure;Samples;Min_cycle;Max_cycle;Signal;HPM_P1;HPM_P2
2023/01/18 00:01:08;;;;;;;2.80;1.77;;;;;;;;;;5065191;28;20039;-71
2023/01/18 00:03:34;;;;;;;7.50;2.47;;;;;;;;;;5055253;28;20049;-71
2023/01/18 00:06:05;;;;;;;5.00;2.03;;;;;;;;;;5066264;28;20236;-71
2023/01/18 00:08:32;;;;;;;6.82;1.70;;;;;;;;;;5066181;28;20036;-71
2023/01/18 00:11:02;;;;;;;3.92;1.92;;;;;;;;;;5058834;28;20134;-71
2023/01/18 00:13:28;;;;;;;3.50;1.77;;;;;;;;;;5067192;28;20051;-69
2023/01/18 00:16:00;;;;;;;2.63;1.70;;;;;;;;;;5066132;28;20076;-71
2023/01/18 00:18:26;;;;;;;5.57;1.67;;;;;;;;;;5063145;28;20045;-71
2023/01/18 00:20:52;;;;;;;4.78;2.05;;;;;;;;;;5062099;28;20044;-71
2023/01/18 00:23:18;;;;;;;4.97;2.42;;;;;;;;;;5073910;28;20047;-71
2023/01/18 00:25:44;;;;;;;4.75;2.45;;;;;;;;;;5064266;28;20612;-70
2023/01/18 00:28:10;;;;;;;4.68;2.47;;;;;;;;;;5058528;28;20035;-71
2023/01/18 00:30:36;;;;;;;2.75;1.98;;;;;;;;;;5066397;28;20036;-70
2023/01/18 00:33:03;;;;;;;4.47;2.30;;;;;;;;;;5060093;28;20044;-71
2023/01/18 00:35:30;;;;;;;4.25;2.30;;;;;;;;;;5063224;28;20043;-71
2023/01/18 00:37:56;;;;;;;5.30;2.22;;;;;;;;;;5061276;28;20052;-71
2023/01/18 00:40:22;;;;;;;5.03;2.42;;;;;;;;;;5064581;28;20128;-73
2023/01/18 00:45:33;;;;;;;4.38;2.20;;;;;;;;;;5061954;28;20051;-72
2023/01/18 00:48:01;;;;;;;10.77;2.10;;;;;;;;;;5061093;28;20525;-71
2023/01/18 00:50:27;;;;;;;3.80;2.50;;;;;;;;;;5052751;28;20068;-71
2023/01/18 00:52:56;;;;;;;3.63;2.10;;;;;;;;;;5056120;28;20499;-71
2023/01/18 00:55:22;;;;;;;5.13;2.05;;;;;;;;;;5059500;28;20049;-71
2023/01/18 00:57:49;;;;;;;6.93;2.40;;;;;;;;;;5063500;28;20040;-71
2023/01/18 01:00:15;;;;;;;7.72;2.80;;;;;;;;;;5062224;28;20036;-70
2023/01/18 01:02:42;;;;;;;7.32;2.08;;;;;;;;;;5061874;28;20517;-71
2023/01/18 01:08:01;;;;;;;4.88;2.17;;;;;;;;;;5059329;28;20040;-71
2023/01/18 01:10:27;;;;;;;4.00;1.80;;;;;;;;;;5049817;28;20055;-71
2023/01/18 01:26:38;;;;;;;2.90;1.80;;;;;;;;;;5060173;28;20272;-72
2023/01/18 01:29:05;;;;;;;6.28;2.20;;;;;;;;;;5054572;28;20040;-70
2023/01/18 01:31:31;;;;;;;3.70;1.60;;;;;;;;;;5054830;28;20402;-71
2023/01/18 01:33:57;;;;;;;6.53;1.75;;;;;;;;;;5057241;28;20482;-71
2023/01/18 01:36:27;;;;;;;6.25;2.40;;;;;;;;;;5059846;28;20139;-71
2023/01/18 01:38:54;;;;;;;2.78;1.65;;;;;;;;;;5068319;28;20407;-71
2023/01/18 01:41:26;;;;;;;4.75;1.77;;;;;;;;;;5067867;28;20072;-71
2023/01/18 01:43:53;;;;;;;2.40;1.75;;;;;;;;;;5065737;28;20496;-71
2023/01/18 01:46:41;;;;;;;5.70;2.13;;;;;;;;;;5065480;28;20040;-69
2023/01/18 01:49:09;;;;;;;3.20;2.42;;;;;;;;;;5061689;28;20071;-72
2023/01/18 01:51:37;;;;;;;3.60;2.10;;;;;;;;;;5063851;28;20055;-72
2023/01/18 01:54:06;;;;;;;3.42;1.70;;;;;;;;;;5060195;28;20029;-72
2023/01/18 01:56:32;;;;;;;3.35;2.00;;;;;;;;;;5058643;28;20036;-70
2023/01/18 01:58:59;;;;;;;3.20;1.65;;;;;;;;;;5064182;28;20491;-71
2023/01/18 02:01:27;;;;;;;3.30;1.60;;;;;;;;;;5065568;28;20045;-70
2023/01/18 02:03:55;;;;;;;2.65;1.65;;;;;;;;;;5056236;28;20302;-71
2023/01/18 02:06:30;;;;;;;2.53;1.75;;;;;;;;;;5057941;28;20032;-71
2023/01/18 02:09:00;;;;;;;3.80;1.88;;;;;;;;;;5065759;28;20059;-71
2023/01/18 02:11:26;;;;;;;4.32;1.83;;;;;;;;;;5058987;28;20029;-70
2023/01/18 02:13:54;;;;;;;3.47;2.20;;;;;;;;;;5059543;28;20471;-71
2023/01/18 02:16:23;;;;;;;5.80;2.00;;;;;;;;;;5067258;28;20049;-71
2023/01/18 02:18:57;;;;;;;2.72;1.40;;;;;;;;;;5054291;28;20047;-71
2023/01/18 02:21:36;;;;;;;5.03;1.88;;;;;;;;;;5061684;28;20037;-71
2023/01/18 02:24:14;;;;;;;3.25;1.92;;;;;;;;;;5063284;28;20063;-71
2023/01/18 02:26:46;;;;;;;4.43;2.22;;;;;;;;;;5059392;28;20258;-70
2023/01/18 02:29:17;;;;;;;3.92;1.90;;;;;;;;;;5070656;28;20037;-71
2023/01/18 02:32:03;;;;;;;3.13;1.98;;;;;;;;;;5069110;28;20146;-71
2023/01/18 02:34:29;;;;;;;4.15;2.13;;;;;;;;;;5063222;28;20041;-71
2023/01/18 02:37:10;;;;;;;15.27;2.03;;;;;;;;;;5059828;28;20052;-71
2023/01/18 02:39:39;;;;;;;3.63;1.77;;;;;;;;;;5069276;28;20044;-71
2023/01/18 02:47:39;;;;;;;5.72;2.30;;;;;;;;;;5066124;28;20037;-71
2023/01/18 02:50:05;;;;;;;9.10;2.13;;;;;;;;;;5062449;28;20046;-71
2023/01/18 02:52:45;;;;;;;5.93;1.80;;;;;;;;;;5055977;28;20043;-71
2023/01/18 02:55:24;;;;;;;3.08;1.73;;;;;;;;;;5062817;28;20066;-71
2023/01/18 02:57:51;;;;;;;5.88;2.15;;;;;;;;;;5068431;28;20072;-71
2023/01/18 03:00:18;;;;;;;2.75;1.67;;;;;;;;;;5065840;28;20036;-71
2023/01/18 03:02:46;;;;;;;4.38;2.28;;;;;;;;;;5052343;28;20045;-71
2023/01/18 03:05:12;;;;;;;4.10;2.22;;;;;;;;;;5065571;28;20475;-71
2023/01/18 03:07:52;;;;;;;7.07;2.15;;;;;;;;;;5064063;28;20106;-71
2023/01/18 03:10:19;;;;;;;5.00;1.83;;;;;;;;;;5068016;28;20052;-71
2023/01/18 03:12:45;;;;;;;6.32;2.05;;;;;;;;;;5060927;28;20037;-70
2023/01/18 03:15:11;;;;;;;6.38;1.52;;;;;;;;;;5063867;28;20043;-71
2023/01/18 03:17:41;;;;;;;6.18;2.30;;;;;;;;;;5066086;28;20123;-71
2023/01/18 03:26:03;;;;;;;3.22;2.40;;;;;;;;;;5058243;28;20535;-71
2023/01/18 03:34:17;;;;;;;4.68;1.90;;;;;;;;;;5058659;28;20486;-71
2023/01/18 03:36:46;;;;;;;5.07;2.28;;;;;;;;;;5062156;28;20465;-71
2023/01/18 03:39:27;;;;;;;4.60;2.00;;;;;;;;;;5064088;28;20082;-71
2023/01/18 03:41:55;;;;;;;5.15;2.13;;;;;;;;;;5068052;28;20056;-71
2023/01/18 03:44:24;;;;;;;4.18;1.90;;;;;;;;;;5065766;28;20068;-71
2023/01/18 03:46:50;;;;;;;2.50;1.63;;;;;;;;;;5056148;28;20120;-71
2023/01/18 03:49:17;;;;;;;5.95;2.75;;;;;;;;;;5059324;28;20032;-70
2023/01/18 03:52:09;;;;;;;3.08;2.22;;;;;;;;;;5063445;28;20032;-71
2023/01/18 03:54:47;;;;;;;12.10;2.57;;;;;;;;;;5059816;28;20056;-71
2023/01/18 03:57:21;;;;;;;7.93;2.53;;;;;;;;;;5061450;28;20372;-71
2023/01/18 03:59:48;;;;;;;8.30;2.60;;;;;;;;;;5063229;28;20618;-71
2023/01/18 04:02:16;;;;;;;7.05;3.30;;;;;;;;;;5054349;28;20518;-71
2023/01/18 04:04:42;;;;;;;5.03;2.42;;;;;;;;;;5065921;28;20040;-71
2023/01/18 04:07:08;;;;;;;7.05;2.80;;;;;;;;;;5059728;28;20036;-71
2023/01/18 04:09:34;;;;;;;5.22;2.58;;;;;;;;;;5075371;28;20068;-71
2023/01/18 04:12:01;;;;;;;6.15;2.70;;;;;;;;;;5057446;28;20049;-71
2023/01/18 04:14:27;;;;;;;4.30;2.70;;;;;;;;;;5059751;28;20229;-71
2023/01/18 04:16:53;;;;;;;10.02;2.78;;;;;;;;;;5061013;28;20045;-70
2023/01/18 04:19:19;;;;;;;5.97;2.97;;;;;;;;;;5059399;28;20052;-72
2023/01/18 04:21:45;;;;;;;4.78;3.33;;;;;;;;;;5063572;28;20123;-71
2023/01/18 04:24:11;;;;;;;5.72;2.90;;;;;;;;;;5059371;28;20127;-71
2023/01/18 04:26:37;;;;;;;7.60;2.92;;;;;;;;;;5063622;28;20102;-70
2023/01/18 04:29:04;;;;;;;4.97;3.10;;;;;;;;;;5061120;28;20453;-71
2023/01/18 04:31:30;;;;;;;6.95;2.92;;;;;;;;;;5066719;28;20119;-71
2023/01/18 04:33:56;;;;;;;7.95;3.13;;;;;;;;;;5056365;28;20041;-71
2023/01/18 04:36:22;;;;;;;6.60;3.30;;;;;;;;;;5060904;28;20067;-71
2023/01/18 04:38:52;;;;;;;8.82;3.80;;;;;;;;;;5053254;28;20043;-71
2023/01/18 04:41:19;;;;;;;7.80;3.00;;;;;;;;;;5060648;28;20106;-71
2023/01/18 04:43:45;;;;;;;6.90;3.80;;;;;;;;;;5064032;28;20044;-72
2023/01/18 04:46:11;;;;;;;9.73;4.15;;;;;;;;;;5063456;28;20437;-72
2023/01/18 04:48:37;;;;;;;6.38;4.03;;;;;;;;;;5060133;28;20049;-71
2023/01/18 04:51:04;;;;;;;10.70;5.07;;;;;;;;;;5056953;28;20044;-71
2023/01/18 04:53:30;;;;;;;6.55;3.47;;;;;;;;;;5063676;28;20536;-71
2023/01/18 04:55:57;;;;;;;7.50;4.07;;;;;;;;;;5062008;28;20115;-71
2023/01/18 04:58:23;;;;;;;7.93;3.63;;;;;;;;;;5062482;28;20503;-71
2023/01/18 05:00:49;;;;;;;6.15;3.83;;;;;;;;;;5055910;28;20037;-71
2023/01/18 05:03:16;;;;;;;7.22;4.07;;;;;;;;;;5063085;28;20045;-71
2023/01/18 05:05:42;;;;;;;7.25;4.43;;;;;;;;;;5062731;28;20040;-71
2023/01/18 05:08:08;;;;;;;5.80;3.70;;;;;;;;;;5066066;28;20036;-71
2023/01/18 05:10:34;;;;;;;7.15;3.80;;;;;;;;;;5064877;28;20494;-71
2023/01/18 05:13:00;;;;;;;13.50;5.18;;;;;;;;;;5062303;28;20036;-71
2023/01/18 05:15:26;;;;;;;9.27;4.22;;;;;;;;;;5062961;28;20081;-70
2023/01/18 05:17:52;;;;;;;9.02;4.20;;;;;;;;;;5053398;28;20036;-71
2023/01/18 05:20:18;;;;;;;9.05;4.35;;;;;;;;;;5070924;28;20048;-71
2023/01/18 05:22:44;;;;;;;12.05;4.25;;;;;;;;;;5049775;28;20502;-70
2023/01/18 05:25:11;;;;;;;6.60;3.80;;;;;;;;;;5057537;28;20061;-71
2023/01/18 05:27:37;;;;;;;7.10;3.60;;;;;;;;;;5055355;28;20134;-71
2023/01/18 05:30:03;;;;;;;7.28;4.30;;;;;;;;;;5055994;28;20198;-71
2023/01/18 05:32:29;;;;;;;19.20;5.25;;;;;;;;;;5056695;28;20526;-71
2023/01/18 05:34:55;;;;;;;8.38;4.32;;;;;;;;;;5051689;28;20070;-71
2023/01/18 05:37:21;;;;;;;6.38;4.18;;;;;;;;;;5060016;28;20043;-71
2023/01/18 05:39:47;;;;;;;5.20;4.28;;;;;;;;;;5053262;28;20076;-71
2023/01/18 05:42:13;;;;;;;8.80;4.50;;;;;;;;;;5070278;28;20141;-71
2023/01/18 05:44:40;;;;;;;6.20;3.67;;;;;;;;;;5040789;28;20131;-71
2023/01/18 05:47:06;;;;;;;6.95;4.05;;;;;;;;;;5067649;28;20072;-71
2023/01/18 05:49:32;;;;;;;7.00;4.85;;;;;;;;;;5064507;28;20067;-71
2023/01/18 05:51:58;;;;;;;10.48;3.78;;;;;;;;;;5064110;28;20032;-71
2023/01/18 05:54:24;;;;;;;9.82;3.67;;;;;;;;;;5061708;28;20479;-71
2023/01/18 05:56:50;;;;;;;9.63;3.83;;;;;;;;;;5029501;28;20041;-71
2023/01/18 05:59:16;;;;;;;7.90;4.32;;;;;;;;;;5056369;28;20087;-69
2023/01/18 06:01:42;;;;;;;5.82;3.40;;;;;;;;;;5055591;28;20079;-71
2023/01/18 06:04:09;;;;;;;5.95;3.25;;;;;;;;;;5065234;28;20402;-71
2023/01/18 06:06:35;;;;;;;7.93;4.00;;;;;;;;;;5070983;28;20132;-71
2023/01/18 06:09:02;;;;;;;7.82;4.15;;;;;;;;;;5056652;28;20044;-71
2023/01/18 06:11:28;;;;;;;19.52;3.20;;;;;;;;;;5021867;28;1168965;-71
2023/01/18 06:13:54;;;;;;;5.45;3.15;;;;;;;;;;5061391;28;20044;-70
2023/01/18 06:16:20;;;;;;;7.15;3.63;;;;;;;;;;5066818;28;20040;-71
2023/01/18 06:18:46;;;;;;;6.70;3.78;;;;;;;;;;5061604;28;20040;-71
2023/01/18 06:21:14;;;;;;;6.55;3.47;;;;;;;;;;5062851;28;20122;-71
2023/01/18 06:23:40;;;;;;;8.80;4.35;;;;;;;;;;5050128;28;20087;-70
2023/01/18 06:26:06;;;;;;;6.68;3.63;;;;;;;;;;5055647;28;20049;-72
2023/01/18 06:28:32;;;;;;;9.20;3.38;;;;;;;;;;5056448;28;20482;-72
2023/01/18 06:30:59;;;;;;;10.88;4.40;;;;;;;;;;5064514;28;20577;-71
2023/01/18 06:33:25;;;;;;;5.05;3.10;;;;;;;;;;5060473;28;20398;-70
2023/01/18 06:35:51;;;;;;;11.35;4.03;;;;;;;;;;5058728;28;20037;-70
2023/01/18 06:38:17;;;;;;;9.65;3.67;;;;;;;;;;5058644;28;20048;-70
2023/01/18 06:40:44;;;;;;;7.30;3.15;;;;;;;;;;5054479;28;20045;-71
2023/01/18 06:43:12;;;;;;;5.53;3.15;;;;;;;;;;5063931;28;20383;-70
2023/01/18 06:45:40;;;;;;;6.68;3.08;;;;;;;;;;5058213;28;20125;-70
2023/01/18 06:48:06;;;;;;;5.60;3.42;;;;;;;;;;5055542;28;20538;-70
2023/01/18 06:50:32;;;;;;;6.20;3.65;;;;;;;;;;5063675;28;20390;-71
2023/01/18 06:52:58;;;;;;;6.90;3.72;;;;;;;;;;5058919;28;20041;-71
2023/01/18 06:55:25;;;;;;;8.57;3.35;;;;;;;;;;5026424;28;20044;-70
2023/01/18 06:57:51;;;;;;;5.78;3.35;;;;;;;;;;5044594;28;20143;-71
2023/01/18 07:00:17;;;;;;;5.13;3.08;;;;;;;;;;5059287;28;20112;-70
2023/01/18 07:02:43;;;;;;;5.88;3.35;;;;;;;;;;5069280;28;20036;-70
2023/01/18 07:05:09;;;;;;;4.18;2.70;;;;;;;;;;5055892;28;20045;-70
2023/01/18 07:07:36;;;;;;;5.15;3.17;;;;;;;;;;5064855;28;20218;-70
2023/01/18 07:10:02;;;;;;;5.72;3.25;;;;;;;;;;5066444;28;20072;-70
2023/01/18 07:12:28;;;;;;;7.68;3.17;;;;;;;;;;5066307;28;20502;-70
2023/01/18 07:14:54;;;;;;;4.88;3.42;;;;;;;;;;5061555;28;20098;-71
2023/01/18 07:17:20;;;;;;;5.78;3.35;;;;;;;;;;5065225;28;20036;-71
2023/01/18 07:19:47;;;;;;;6.03;3.67;;;;;;;;;;5066267;28;20420;-71
2023/01/18 07:22:13;;;;;;;8.60;4.70;;;;;;;;;;5059401;28;20048;-70
2023/01/18 07:24:39;;;;;;;8.48;4.55;;;;;;;;;;5065032;28;20048;-70
2023/01/18 07:27:05;;;;;;;5.72;4.05;;;;;;;;;;5067026;28;21433;-70
2023/01/18 07:29:32;;;;;;;14.88;5.07;;;;;;;;;;5068030;28;20089;-70
2023/01/18 07:31:59;;;;;;;12.50;4.50;;;;;;;;;;5063796;28;20530;-71
2023/01/18 07:34:26;;;;;;;6.90;3.72;;;;;;;;;;5061198;28;20068;-70
2023/01/18 07:36:53;;;;;;;7.60;4.57;;;;;;;;;;5055108;28;20047;-70
2023/01/18 07:39:19;;;;;;;8.63;5.25;;;;;;;;;;5057426;28;20275;-70
2023/01/18 07:41:46;;;;;;;8.75;5.60;;;;;;;;;;5049132;28;20033;-71
2023/01/18 07:44:12;;;;;;;10.65;5.97;;;;;;;;;;5057685;28;20410;-70
2023/01/18 07:46:38;;;;;;;19.38;6.10;;;;;;;;;;5062264;28;20048;-70
2023/01/18 07:49:04;;;;;;;13.95;7.63;;;;;;;;;;5062091;28;20117;-70
2023/01/18 07:51:31;;;;;;;9.98;7.15;;;;;;;;;;5057706;28;20036;-70
2023/01/18 07:53:58;;;;;;;10.02;6.15;;;;;;;;;;5057908;28;20080;-70
2023/01/18 07:56:24;;;;;;;12.73;6.40;;;;;;;;;;5056462;28;20094;-71
2023/01/18 07:58:51;;;;;;;9.13;5.88;;;;;;;;;;5069795;28;20112;-70
2023/01/18 08:01:19;;;;;;;8.73;5.18;;;;;;;;;;5060775;28;20406;-70
2023/01/18 08:03:46;;;;;;;10.77;5.95;;;;;;;;;;5056811;28;20119;-70
2023/01/18 08:06:15;;;;;;;9.68;6.38;;;;;;;;;;5055757;28;20092;-71
2023/01/18 08:08:42;;;;;;;12.07;7.40;;;;;;;;;;5056216;28;20123;-70
2023/01/18 08:11:08;;;;;;;8.18;5.18;;;;;;;;;;5056459;28;20107;-70
2023/01/18 08:13:35;;;;;;;9.80;5.68;;;;;;;;;;5053314;28;20128;-71
2023/01/18 08:16:02;;;;;;;7.20;5.38;;;;;;;;;;5073092;28;20120;-71
2023/01/18 08:18:28;;;;;;;9.65;5.43;;;;;;;;;;5063488;28;20044;-70
2023/01/18 08:20:54;;;;;;;9.98;5.65;;;;;;;;;;5063045;28;20083;-70
2023/01/18 08:23:20;;;;;;;9.82;6.32;;;;;;;;;;5057532;28;20103;-70
2023/01/18 08:25:47;;;;;;;11.18;5.82;;;;;;;;;;5056976;28;20087;-70
2023/01/18 08:28:13;;;;;;;14.10;5.63;;;;;;;;;;5062148;28;20068;-70
2023/01/18 08:30:44;;;;;;;9.80;5.30;;;;;;;;;;5063000;28;20040;-71
2023/01/18 08:33:10;;;;;;;10.73;5.47;;;;;;;;;;5063973;28;20044;-70
2023/01/18 08:35:40;;;;;;;9.15;5.53;;;;;;;;;;5062950;28;20033;-70
2023/01/18 08:38:06;;;;;;;11.25;5.65;;;;;;;;;;5063150;28;20041;-69
2023/01/18 08:40:32;;;;;;;9.27;5.32;;;;;;;;;;5055070;28;20039;-70
2023/01/18 08:43:00;;;;;;;8.80;5.60;;;;;;;;;;5056865;28;20047;-70
2023/01/18 08:45:26;;;;;;;9.77;5.93;;;;;;;;;;5056347;28;20094;-70
2023/01/18 08:47:57;;;;;;;7.72;4.95;;;;;;;;;;5056072;28;20420;-70
2023/01/18 08:50:23;;;;;;;10.32;5.22;;;;;;;;;;5062465;28;20036;-70
2023/01/18 08:52:51;;;;;;;10.63;6.10;;;;;;;;;;5065016;28;20045;-70
2023/01/18 08:55:17;;;;;;;7.10;5.30;;;;;;;;;;5058733;28;20044;-70
2023/01/18 08:57:44;;;;;;;10.18;6.05;;;;;;;;;;5061685;28;20058;-70
2023/01/18 09:00:10;;;;;;;8.65;5.65;;;;;;;;;;5056443;28;20086;-70
2023/01/18 09:02:37;;;;;;;9.13;5.72;;;;;;;;;;5066988;28;20040;-70
2023/01/18 09:05:03;;;;;;;8.40;5.07;;;;;;;;;;5056502;28;20143;-70
2023/01/18 09:07:29;;;;;;;9.75;5.45;;;;;;;;;;5054427;28;20091;-70
2023/01/18 09:09:55;;;;;;;7.72;5.28;;;;;;;;;;5061847;28;20140;-70
2023/01/18 09:12:22;;;;;;;9.27;5.47;;;;;;;;;;5074113;28;20052;-69
2023/01/18 09:14:48;;;;;;;8.25;5.07;;;;;;;;;;5059390;28;20041;-70
2023/01/18 09:17:16;;;;;;;8.77;5.53;;;;;;;;;;5057513;28;20402;-70
2023/01/18 09:19:43;;;;;;;9.35;5.93;;;;;;;;;;5061730;28;20074;-69
2023/01/18 09:22:10;;;;;;;5.85;4.75;;;;;;;;;;5061688;28;20048;-70
2023/01/18 09:24:36;;;;;;;7.45;5.28;;;;;;;;;;5061720;28;20041;-70
2023/01/18 09:27:03;;;;;;;7.47;4.97;;;;;;;;;;5055679;28;20063;-70
2023/01/18 09:29:30;;;;;;;13.27;5.85;;;;;;;;;;5063365;28;20441;-72
2023/01/18 09:31:56;;;;;;;7.65;4.72;;;;;;;;;;5059315;28;20487;-70
2023/01/18 09:34:22;;;;;;;8.88;5.13;;;;;;;;;;5060648;28;20063;-70
2023/01/18 09:36:50;;;;;;;7.63;4.95;;;;;;;;;;5062968;28;20044;-70
2023/01/18 09:39:16;;;;;;;10.50;5.18;;;;;;;;;;5057592;28;20044;-70
2023/01/18 09:41:45;;;;;;;11.68;5.75;;;;;;;;;;5062567;28;20078;-70
2023/01/18 09:44:11;;;;;;;8.93;5.07;;;;;;;;;;5049011;28;20112;-70
2023/01/18 09:46:39;;;;;;;8.35;5.15;;;;;;;;;;5058218;28;20044;-70
2023/01/18 09:49:06;;;;;;;9.23;4.75;;;;;;;;;;5059660;28;20115;-70
2023/01/18 09:51:38;;;;;;;7.40;4.90;;;;;;;;;;5058431;28;20087;-70
2023/01/18 09:54:04;;;;;;;6.90;4.82;;;;;;;;;;5054180;28;20049;-70
2023/01/18 09:56:43;;;;;;;10.00;4.80;;;;;;;;;;5061736;28;20045;-70
2023/01/18 09:59:19;;;;;;;7.68;4.45;;;;;;;;;;5061145;28;20398;-70
2023/01/18 10:01:46;;;;;;;9.45;5.13;;;;;;;;;;5060520;28;20045;-70
2023/01/18 10:04:16;;;;;;;9.27;5.20;;;;;;;;;;5058079;28;20068;-71
2023/01/18 10:06:42;;;;;;;7.93;4.50;;;;;;;;;;5062198;28;20132;-70
2023/01/18 10:09:14;;;;;;;6.93;4.97;;;;;;;;;;5061936;28;20436;-70
2023/01/18 10:11:43;;;;;;;10.02;5.43;;;;;;;;;;5057945;28;20147;-70
2023/01/18 10:14:10;;;;;;;8.07;4.97;;;;;;;;;;5063556;28;20075;-71
2023/01/18 10:16:36;;;;;;;7.95;5.35;;;;;;;;;;5053906;28;20049;-71
2023/01/18 10:19:03;;;;;;;10.50;5.40;;;;;;;;;;5059948;28;20052;-71
2023/01/18 10:21:47;;;;;;;7.75;4.45;;;;;;;;;;5056448;28;20093;-71
2023/01/18 10:24:20;;;;;;;7.47;4.85;;;;;;;;;;5062246;28;20048;-71
2023/01/18 10:26:47;;;;;;;8.38;4.90;;;;;;;;;;5058440;28;20045;-70
2023/01/18 10:29:20;;;;;;;7.65;4.63;;;;;;;;;;5059775;28;20163;-71
2023/01/18 10:31:46;;;;;;;9.18;4.88;;;;;;;;;;5062279;28;20251;-71
2023/01/18 10:34:18;;;;;;;8.43;5.22;;;;;;;;;;5055026;28;20137;-71
2023/01/18 10:36:46;;;;;;;10.60;5.22;;;;;;;;;;5064393;28;20096;-72
2023/01/18 10:39:26;;;;;;;7.65;4.35;;;;;;;;;;5051455;28;20368;-71
2023/01/18 10:41:53;;;;;;;5.65;3.67;;;;;;;;;;5057867;28;20037;-71
2023/01/18 10:44:20;;;;;;;7.50;4.63;;;;;;;;;;5060348;28;20040;-71
2023/01/18 10:46:46;;;;;;;7.28;4.72;;;;;;;;;;5062851;28;20566;-70
2023/01/18 10:49:32;;;;;;;7.57;4.47;;;;;;;;;;5058836;28;20446;-71
2023/01/18 10:52:01;;;;;;;6.28;3.85;;;;;;;;;;5056376;28;20041;-71
2023/01/18 10:54:27;;;;;;;6.55;4.22;;;;;;;;;;5055195;28;20118;-71
2023/01/18 10:57:04;;;;;;;11.90;4.40;;;;;;;;;;5075908;28;20049;-71
2023/01/18 10:59:38;;;;;;;6.35;4.40;;;;;;;;;;5051459;28;20418;-70
2023/01/18 11:02:05;;;;;;;5.68;4.40;;;;;;;;;;5057067;28;20399;-71
2023/01/18 11:04:33;;;;;;;13.88;5.22;;;;;;;;;;5053847;28;20097;-72
2023/01/18 11:07:03;;;;;;;11.98;5.10;;;;;;;;;;5052449;28;20125;-71
2023/01/18 11:09:30;;;;;;;7.15;4.60;;;;;;;;;;5067788;28;20056;-71
2023/01/18 11:14:56;;;;;;;8.23;4.85;;;;;;;;;;5058026;28;20107;-71
2023/01/18 11:17:23;;;;;;;6.90;4.30;;;;;;;;;;5068431;28;20490;-71
2023/01/18 11:20:04;;;;;;;7.13;4.20;;;;;;;;;;5054445;28;20247;-70
2023/01/18 11:22:32;;;;;;;5.13;3.80;;;;;;;;;;5052984;28;20113;-71
2023/01/18 11:24:58;;;;;;;5.63;3.80;;;;;;;;;;5058661;28;20072;-71
2023/01/18 11:27:24;;;;;;;6.03;3.38;;;;;;;;;;5055658;28;20040;-70
2023/01/18 11:29:51;;;;;;;7.18;3.58;;;;;;;;;;5056200;28;20056;-71
2023/01/18 11:32:23;;;;;;;9.07;3.92;;;;;;;;;;5053551;28;20037;-71
2023/01/18 11:34:59;;;;;;;5.13;3.00;;;;;;;;;;5055507;28;20124;-71
2023/01/18 11:37:29;;;;;;;7.82;4.03;;;;;;;;;;5055571;28;20036;-71
2023/01/18 11:39:56;;;;;;;7.65;3.60;;;;;;;;;;5055490;28;20037;-70
2023/01/18 11:42:22;;;;;;;7.60;3.63;;;;;;;;;;5059359;28;20047;-71
2023/01/18 11:44:54;;;;;;;7.00;3.53;;;;;;;;;;5051436;28;20430;-71
2023/01/18 11:47:27;;;;;;;5.30;3.05;;;;;;;;;;5057601;28;20390;-70
2023/01/18 11:49:53;;;;;;;5.25;3.20;;;;;;;;;;5050485;28;20506;-70
2023/01/18 11:52:31;;;;;;;5.38;2.80;;;;;;;;;;5054439;28;20037;-71
2023/01/18 11:55:02;;;;;;;5.93;2.95;;;;;;;;;;5056390;28;20052;-71
2023/01/18 11:57:28;;;;;;;6.00;3.20;;;;;;;;;;5053254;28;20082;-70
2023/01/18 11:59:54;;;;;;;6.95;3.28;;;;;;;;;;5054895;28;20651;-70
2023/01/18 12:02:24;;;;;;;5.78;2.90;;;;;;;;;;5054410;28;20040;-70
2023/01/18 12:04:52;;;;;;;4.82;2.75;;;;;;;;;;5050767;28;20544;-70
2023/01/18 12:07:42;;;;;;;5.13;2.80;;;;;;;;;;5056275;28;20051;-70
2023/01/18 12:10:22;;;;;;;5.82;2.70;;;;;;;;;;5052259;28;20379;-70
2023/01/18 12:13:05;;;;;;;4.85;2.55;;;;;;;;;;5059174;28;20565;-70
2023/01/18 12:15:47;;;;;;;5.47;2.70;;;;;;;;;;5054225;28;20079;-70
2023/01/18 12:18:22;;;;;;;4.32;2.88;;;;;;;;;;5055538;28;20041;-71
2023/01/18 12:20:52;;;;;;;4.63;2.92;;;10.90;74.70;;;;;;5057975;28;20123;-70
2023/01/18 12:23:32;;;;;;;6.30;3.03;;;10.00;99.90;;;;;;5055028;28;20514;-70
2023/01/18 12:26:07;;;;;;;9.50;2.60;;;9.70;99.90;;;;;;5056958;28;20406;-70
2023/01/18 12:28:42;;;;;;;5.55;3.35;;;;;;;;;;5057629;28;20032;-71
2023/01/18 12:31:14;;;;;;;8.10;3.80;;;;;;;;;;5061968;28;20068;-71
2023/01/18 12:33:46;;;;;;;7.60;4.00;;;;;;;;;;5060713;28;20393;-70
2023/01/18 12:36:22;;;;;;;4.43;2.60;;;;;;;;;;5071927;28;20048;-70
2023/01/18 12:38:53;;;;;;;4.72;1.95;;;;;;;;;;5057595;28;20040;-70
2023/01/18 12:41:19;;;;;;;6.20;2.72;;;;;;;;;;5056734;28;20497;-71
2023/01/18 12:43:48;;;;;;;4.90;2.55;;;;;;;;;;5055874;28;20044;-70
2023/01/18 12:46:20;;;;;;;9.07;3.50;;;;;;;;;;5060192;28;20090;-71
2023/01/18 12:48:50;;;;;;;5.75;2.75;;;;;;;;;;5051346;28;20033;-71
2023/01/18 12:51:18;;;;;;;5.72;2.05;;;;;;;;;;5053832;28;20499;-70
2023/01/18 12:53:47;;;;;;;4.15;1.75;;;;;;;;;;5060997;28;20040;-70
2023/01/18 12:56:19;;;;;;;8.43;2.47;;;;;;;;;;5057353;28;20060;-71
2023/01/18 12:58:49;;;;;;;3.13;1.90;;;;;;;;;;5053053;28;20047;-70
2023/01/18 13:01:19;;;;;;;5.03;2.72;;;;;;;;;;5062086;28;20046;-71
2023/01/18 13:03:46;;;;;;;6.45;2.72;;;;;;;;;;5058647;28;20082;-71
2023/01/18 13:06:13;;;;;;;3.65;2.38;;;;;;;;;;5060266;28;20102;-70
2023/01/18 13:08:45;;;;;;;5.85;1.95;;;;;;;;;;5056604;28;20063;-70
2023/01/18 13:11:16;;;;;;;4.10;2.08;;;;;;;;;;5063338;28;20033;-70
2023/01/18 13:13:43;;;;;;;10.30;2.55;;;;;;;;;;5064423;28;20033;-71
2023/01/18 13:16:27;;;;;;;4.93;2.15;;;;;;;;;;5053518;28;20308;-71
2023/01/18 13:19:02;;;;;;;7.07;2.30;;;;;;;;;;5058363;28;20090;-71
2023/01/18 13:21:43;;;;;;;4.13;2.35;;;;;;;;;;5054856;28;20051;-71
2023/01/18 13:24:16;;;;;;;8.02;2.70;;;;;;;;;;5050184;28;20045;-70
2023/01/18 13:26:42;;;;;;;3.88;2.30;;;;;;;;;;5057251;28;20040;-71
2023/01/18 13:29:30;;;;;;;8.15;3.80;;;;;;;;;;5061503;28;20036;-71
2023/01/18 13:31:57;;;;;;;8.05;2.30;;;;;;;;;;5058121;28;20602;-71
2023/01/18 13:34:28;;;;;;;4.68;3.10;;;;;;;;;;5056722;28;20041;-70
2023/01/18 13:36:55;;;;;;;7.38;3.20;;;;;;;;;;5073439;28;20483;-71
2023/01/18 13:39:22;;;;;;;6.70;2.38;;;;;;;;;;5060239;28;20036;-71
2023/01/18 13:42:04;;;;;;;4.60;2.50;;;;;;;;;;5052022;28;20251;-71
2023/01/18 13:44:37;;;;;;;7.60;2.67;;;;;;;;;;5061255;28;20467;-71
2023/01/18 13:47:23;;;;;;;5.82;3.15;;;;;;;;;;5054557;28;20036;-71
2023/01/18 13:49:49;;;;;;;8.13;3.53;;;;;;;;;;5058346;28;20567;-71
2023/01/18 13:52:29;;;;;;;7.75;3.35;;;;;;;;;;5062672;28;20036;-70
2023/01/18 13:54:55;;;;;;;7.15;2.92;;;;;;;;;;5065286;28;20090;-71
2023/01/18 13:57:23;;;;;;;5.00;2.75;;;;;;;;;;5064854;28;20094;-71
2023/01/18 13:59:50;;;;;;;6.13;2.72;;;;;;;;;;5060481;28;20045;-70
2023/01/18 14:02:22;;;;;;;5.28;2.78;;;;;;;;;;5050113;28;20045;-70
2023/01/18 14:05:15;;;;;;;6.05;3.10;;;;;;;;;;5051652;28;20040;-70
2023/01/18 14:07:43;;;;;;;7.72;2.90;;;;;;;;;;5051788;28;20100;-70
2023/01/18 14:10:20;;;;;;;6.55;2.90;;;;;;;;;;5052328;28;20033;-71
2023/01/18 14:12:47;;;;;;;4.28;2.70;;;;;;;;;;5050209;28;20044;-69
2023/01/18 14:15:25;;;;;;;7.50;2.78;;;;;;;;;;5049376;28;20055;-70
2023/01/18 14:17:51;;;;;;;8.77;3.83;;;;;;;;;;5051278;28;20191;-71
2023/01/18 14:20:34;;;;;;;4.35;1.90;;;;;;;;;;5045684;28;20364;-71
2023/01/18 14:23:19;;;;;;;5.10;2.53;;;;;;;;;;5051678;28;20122;-70
2023/01/18 14:26:15;;;;;;;4.60;2.70;;;;;;;;;;5057537;28;20044;-71
2023/01/18 14:28:50;;;;;;;5.13;2.67;;;;;;;;;;5051151;28;20079;-71
2023/01/18 14:31:19;;;;;;;5.05;1.77;;;;;;;;;;5053207;28;20045;-70
2023/01/18 14:33:46;;;;;;;6.22;1.63;;;;;;;;;;5058742;28;20050;-70
2023/01/18 14:36:22;;;;;;;4.68;1.92;;;;;;;;;;5061814;28;20547;-70
2023/01/18 14:39:06;;;;;;;2.10;1.08;;;;;;;;;;5063185;28;20048;-70
2023/01/18 14:41:32;;;;;;;4.60;1.30;;;;;;;;;;5058372;28;20052;-70
2023/01/18 14:43:58;;;;;;;4.35;1.42;;;;;;;;;;5060506;28;20051;-70
2023/01/18 14:46:26;;;;;;;3.40;1.33;;;;;;;;;;5066052;28;20565;-71
2023/01/18 14:48:54;;;;;;;3.55;2.00;;;;;;;;;;5063302;28;20406;-70
2023/01/18 14:51:27;;;;;;;6.53;1.95;;;;;;;;;;5065822;28;20036;-69
2023/01/18 14:53:53;;;;;;;;;;;;;;;;;;5063612;28;20040;-71
2023/01/18 14:56:21;;;;;;;5.03;2.33;;;;;;;;;;5064339;28;19916;-71
2023/01/18 14:58:58;;;;;;;8.38;3.03;;;;;;;;;;5042672;28;20380;-70
2023/01/18 15:01:26;;;;;;;5.05;3.65;;;;;;;;;;5052343;28;20126;-70
2023/01/18 15:03:54;;;;;;;5.25;1.45;;;;;;;;;;5056164;28;20040;-71
2023/01/18 15:06:24;;;;;;;9.52;2.25;;;;;;;;;;5058793;28;20094;-71
2023/01/18 15:08:50;;;;;;;5.78;3.03;;;;;;;;;;5052670;28;20407;-70
2023/01/18 15:11:16;;;;;;;7.70;3.55;;;;;;;;;;5054598;28;20037;-71
2023/01/18 15:13:48;;;;;;;6.03;3.22;;;;;;;;;;5060955;28;20045;-70
2023/01/18 15:16:16;;;;;;;6.43;2.97;;;;;;;;;;5052367;28;20049;-70
2023/01/18 15:18:42;;;;;;;7.78;3.83;;;;;;;;;;5053606;28;20442;-69
2023/01/18 15:21:12;;;;;;;10.48;5.72;;;;;;;;;;5055458;28;20124;-70
2023/01/18 15:23:40;;;;;;;8.20;2.35;;;;;;;;;;5051426;28;20040;-71
2023/01/18 15:26:06;;;;;;;5.38;1.40;;;;;;;;;;5056616;28;20044;-70
2023/01/18 15:28:33;;;;;;;3.47;1.95;;;;;;;;;;5057165;28;20043;-70
2023/01/18 15:30:59;;;;;;;2.50;1.38;;;;;;;;;;5054026;28;20055;-70